| time (UTC) | temp C | wind direction | speed KPH | gust KPH | rain 1hr cm | rain 24hr cm | rain mn cm | humidity % | barometer mb |
| 20260507065352 | 8 | 111 | 4.8 | 11.3 | 0.00 | 0.00 | 0.00 | 45 | 1022.5 |
| 20260507064850 | 8 | 112 | 4.8 | 14.5 | 0.00 | 0.00 | 0.00 | 45 | 1022.4 |
| 20260507064348 | 8 | 112 | 3.2 | 14.5 | 0.00 | 0.00 | 0.00 | 44 | 1022.3 |
| 20260507063848 | 8 | 210 | 1.6 | 6.4 | 0.00 | 0.00 | 0.00 | 45 | 1022.4 |
| 20260507063348 | 9 | 211 | 3.2 | 8.0 | 0.00 | 0.00 | 0.00 | 45 | 1022.3 |
| 20260507062846 | 9 | 211 | 4.8 | 9.7 | 0.00 | 0.00 | 0.00 | 45 | 1022.3 |
| 20260507062346 | 9 | 211 | 4.8 | 9.7 | 0.00 | 0.00 | 0.00 | 45 | 1022.0 |
| 20260507061846 | 9 | 0 | 4.8 | 8.0 | 0.00 | 0.00 | 0.00 | 44 | 1022.0 |
| 20260507061346 | 9 | 0 | 4.8 | 8.0 | 0.00 | 0.00 | 0.00 | 45 | 1022.0 |
| 20260507061117 | 9 | 222 | 6.4 | 8.0 | 0.00 | 0.00 | 0.00 | 44 | 1022.0 |
| 20260507060344 | 9 | 223 | 4.8 | 8.0 | 0.00 | 0.00 | 0.00 | 44 | 1022.0 |
| 20260507055844 | 9 | 221 | 4.8 | 9.7 | 0.00 | 0.00 | 0.00 | 43 | 1021.9 |
| 20260507055344 | 10 | 219 | 4.8 | 9.7 | 0.00 | 0.00 | 0.00 | 42 | 1021.9 |
| 20260507054844 | 10 | 0 | 6.4 | 9.7 | 0.00 | 0.00 | 0.00 | 41 | 1021.8 |
| 20260507054344 | 10 | 202 | 6.4 | 9.7 | 0.00 | 0.00 | 0.00 | 41 | 1021.9 |
| 20260507053844 | 10 | 196 | 8.0 | 14.5 | 0.00 | 0.00 | 0.00 | 40 | 1021.8 |
| 20260507053344 | 10 | 174 | 6.4 | 14.5 | 0.00 | 0.00 | 0.00 | 40 | 1021.8 |
| 20260507052844 | 10 | 194 | 6.4 | 12.9 | 0.00 | 0.00 | 0.00 | 39 | 1021.7 |
| 20260507052343 | 10 | 200 | 4.8 | 11.3 | 0.00 | 0.00 | 0.00 | 36 | 1021.5 |
| 20260507052115 | 9 | 170 | 1.6 | 6.4 | 0.00 | 0.00 | 0.00 | 33 | 1021.5 |
| 20260507051342 | 9 | 138 | 1.6 | 4.8 | 0.00 | 0.00 | 0.00 | 33 | 1021.5 |
| 20260507050842 | 10 | 138 | 1.6 | 4.8 | 0.00 | 0.00 | 0.00 | 32 | 1021.4 |
| 20260507050612 | 10 | 154 | 0.0 | 3.2 | 0.00 | 0.00 | 0.00 | 32 | 1021.3 |
| 20260507045842 | 10 | 154 | 0.0 | 3.2 | 0.00 | 0.00 | 0.00 | 30 | 1021.3 |
| 20260507045342 | 11 | 154 | 0.0 | 8.0 | 0.00 | 0.00 | 0.00 | 31 | 1021.3 |
| 20260507044840 | 11 | 155 | 1.6 | 8.0 | 0.00 | 0.00 | 0.00 | 30 | 1021.2 |
| 20260507044341 | 11 | 159 | 1.6 | 8.0 | 0.00 | 0.00 | 0.00 | 28 | 1021.3 |
| 20260507043839 | 11 | 140 | 1.6 | 8.0 | 0.00 | 0.00 | 0.00 | 28 | 1021.3 |
| 20260507043338 | 11 | 99 | 1.6 | 9.7 | 0.00 | 0.00 | 0.00 | 29 | 1021.2 |
| 20260507042837 | 11 | 97 | 1.6 | 9.7 | 0.00 | 0.00 | 0.00 | 29 | 1021.2 |
| 20260507042337 | 11 | 102 | 1.6 | 8.0 | 0.00 | 0.00 | 0.00 | 29 | 1021.2 |
| 20260507042105 | 11 | 101 | 1.6 | 4.8 | 0.00 | 0.00 | 0.00 | 30 | 1021.2 |
| 20260507041334 | 11 | 87 | 0.0 | 3.2 | 0.00 | 0.00 | 0.00 | 31 | 1021.0 |
| 20260507040833 | 10 | 74 | 0.0 | 8.0 | 0.00 | 0.00 | 0.00 | 32 | 1020.9 |
| 20260507040334 | 10 | 0 | 0.0 | 8.0 | 0.00 | 0.00 | 0.00 | 32 | 1020.9 |
| 20260507035833 | 10 | 346 | 0.0 | 4.8 | 0.00 | 0.00 | 0.00 | 33 | 1020.8 |
| 20260507035334 | 11 | 338 | 0.0 | 3.2 | 0.00 | 0.00 | 0.00 | 32 | 1020.9 |
| 20260507034833 | 11 | 327 | 0.0 | 3.2 | 0.00 | 0.00 | 0.00 | 32 | 1020.8 |
| 20260507034331 | 11 | 323 | 0.0 | 3.2 | 0.00 | 0.00 | 0.00 | 33 | 1020.8 |
| 20260507033831 | 11 | 323 | 0.0 | 4.8 | 0.00 | 0.00 | 0.00 | 32 | 1020.8 |
| 20260507033330 | 11 | 319 | 0.0 | 4.8 | 0.00 | 0.00 | 0.00 | 32 | 1020.7 |
| 20260507032823 | 11 | 317 | 0.0 | 4.8 | 0.00 | 0.00 | 0.00 | 32 | 1020.5 |
| 20260507032554 | 11 | 300 | 0.0 | 1.6 | 0.00 | 0.00 | 0.00 | 31 | 1020.5 |
| 20260507031824 | 11 | 298 | 0.0 | 3.2 | 0.00 | 0.00 | 0.00 | 30 | 1020.5 |
| 20260507031322 | 12 | 296 | 1.6 | 6.4 | 0.00 | 0.00 | 0.00 | 30 | 1020.4 |
| 20260507030821 | 12 | 296 | 4.8 | 11.3 | 0.00 | 0.00 | 0.00 | 28 | 1020.3 |
| 20260507030551 | 12 | 295 | 4.8 | 11.3 | 0.00 | 0.00 | 0.00 | 28 | 1020.3 |
| 20260507025820 | 13 | 292 | 3.2 | 8.0 | 0.00 | 0.00 | 0.00 | 28 | 1020.2 |
| 20260507025548 | 13 | 292 | 3.2 | 9.7 | 0.00 | 0.00 | 0.00 | 28 | 1020.0 |
| 20260507024817 | 13 | 291 | 4.8 | 11.3 | 0.00 | 0.00 | 0.00 | 28 | 1019.9 |
| 20260507024318 | 13 | 290 | 3.2 | 11.3 | 0.00 | 0.00 | 0.00 | 28 | 1019.9 |
| 20260507023817 | 13 | 290 | 3.2 | 11.3 | 0.00 | 0.00 | 0.00 | 28 | 1019.8 |
| 20260507023317 | 13 | 290 | 3.2 | 11.3 | 0.00 | 0.00 | 0.00 | 28 | 1019.8 |
| 20260507023049 | 13 | 285 | 1.6 | 6.4 | 0.00 | 0.00 | 0.00 | 31 | 1019.7 |
| 20260507022317 | 13 | 285 | 1.6 | 6.4 | 0.00 | 0.00 | 0.00 | 30 | 1019.7 |
| 20260507021818 | 14 | 285 | 0.0 | 3.2 | 0.00 | 0.00 | 0.00 | 31 | 1019.5 |
| 20260507021318 | 14 | 285 | 0.0 | 4.8 | 0.00 | 0.00 | 0.00 | 31 | 1019.4 |
| 20260507020818 | 15 | 285 | 0.0 | 4.8 | 0.00 | 0.00 | 0.00 | 30 | 1019.4 |
| 20260507020318 | 15 | 285 | 0.0 | 4.8 | 0.00 | 0.00 | 0.00 | 29 | 1019.4 |
| 20260507015817 | 15 | 285 | 0.0 | 4.8 | 0.00 | 0.00 | 0.00 | 29 | 1019.4 |
| 20260507015319 | 15 | 285 | 3.2 | 14.5 | 0.00 | 0.00 | 0.00 | 29 | 1019.3 |
| 20260507014817 | 15 | 285 | 4.8 | 14.5 | 0.00 | 0.00 | 0.00 | 28 | 1019.4 |
| 20260507014317 | 15 | 284 | 3.2 | 9.7 | 0.00 | 0.00 | 0.00 | 27 | 1019.3 |
| 20260507013818 | 16 | 283 | 3.2 | 12.9 | 0.00 | 0.00 | 0.00 | 27 | 1019.2 |
| 20260507013318 | 16 | 282 | 4.8 | 14.5 | 0.00 | 0.00 | 0.00 | 26 | 1019.2 |
| 20260507012815 | 17 | 306 | 3.2 | 14.5 | 0.00 | 0.00 | 0.00 | 25 | 1019.2 |
| 20260507012315 | 18 | 311 | 1.6 | 8.0 | 0.00 | 0.00 | 0.00 | 23 | 1019.0 |
| 20260507012047 | 19 | 316 | 0.0 | 4.8 | 0.00 | 0.00 | 0.00 | 23 | 1019.0 |
| 20260507011316 | 20 | 317 | 0.0 | 1.6 | 0.00 | 0.00 | 0.00 | 22 | 1019.2 |
| 20260507010815 | 20 | 317 | 0.0 | 4.8 | 0.00 | 0.00 | 0.00 | 23 | 1018.9 |
| 20260507010314 | 20 | 317 | 0.0 | 4.8 | 0.00 | 0.00 | 0.00 | 22 | 1019.0 |
| 20260507005814 | 20 | 316 | 0.0 | 0.0 | 0.00 | 0.00 | 0.00 | 22 | 1018.8 |
| 20260507005313 | 18 | 316 | 0.0 | 4.8 | 0.00 | 0.00 | 0.00 | 23 | 1018.8 |
| 20260507004814 | 17 | 316 | 0.0 | 4.8 | 0.00 | 0.00 | 0.00 | 25 | 1018.7 |
| 20260507004314 | 16 | 315 | 3.2 | 9.7 | 0.00 | 0.00 | 0.00 | 26 | 1018.8 |
| 20260507004043 | 16 | 315 | 6.4 | 11.3 | 0.00 | 0.00 | 0.00 | 27 | 1018.7 |
| 20260507003311 | 16 | 313 | 6.4 | 12.9 | 0.00 | 0.00 | 0.00 | 27 | 1018.7 |
| 20260507002811 | 16 | 313 | 6.4 | 17.7 | 0.00 | 0.00 | 0.00 | 27 | 1018.7 |
| 20260507002308 | 16 | 316 | 6.4 | 17.7 | 0.00 | 0.00 | 0.00 | 26 | 1018.7 |
| 20260507001805 | 16 | 355 | 4.8 | 16.1 | 0.00 | 0.00 | 0.00 | 26 | 1018.5 |
| 20260507001303 | 16 | 269 | 1.6 | 14.5 | 0.00 | 0.00 | 0.00 | 26 | 1018.5 |
| 20260507000804 | 16 | 268 | 3.2 | 14.5 | 0.00 | 0.03 | 0.00 | 26 | 1018.5 |
| 20260507000302 | 15 | 323 | 8.0 | 16.1 | 0.00 | 0.03 | 0.00 | 26 | 1018.4 |
| 20260506235800 | 15 | 323 | 11.3 | 25.7 | 0.00 | 0.03 | 0.00 | 26 | 1018.4 |
| 20260506235253 | 16 | 321 | 9.7 | 25.7 | 0.00 | 0.05 | 0.00 | 25 | 1018.4 |
| 20260506234753 | 17 | 290 | 9.7 | 19.3 | 0.00 | 0.05 | 0.00 | 25 | 1018.3 |
| 20260506234249 | 17 | 290 | 12.9 | 25.7 | 0.00 | 0.05 | 0.00 | 25 | 1018.2 |
| 20260506233749 | 16 | 300 | 12.9 | 25.7 | 0.00 | 0.05 | 0.00 | 24 | 1018.3 |
| 20260506233249 | 16 | 290 | 9.7 | 22.5 | 0.00 | 0.05 | 0.00 | 24 | 1018.3 |
| 20260506232749 | 16 | 235 | 11.3 | 24.1 | 0.00 | 0.05 | 0.00 | 24 | 1018.2 |
| 20260506232250 | 16 | 305 | 11.3 | 27.4 | 0.00 | 0.05 | 0.00 | 24 | 1018.3 |
| 20260506231751 | 16 | 301 | 11.3 | 27.4 | 0.00 | 0.05 | 0.00 | 24 | 1018.3 |
| 20260506231249 | 16 | 265 | 11.3 | 22.5 | 0.00 | 0.05 | 0.00 | 23 | 1018.2 |
| 20260506230749 | 17 | 271 | 11.3 | 22.5 | 0.00 | 0.08 | 0.00 | 23 | 1018.2 |
| 20260506230249 | 17 | 306 | 12.9 | 22.5 | 0.00 | 0.08 | 0.00 | 23 | 1018.2 |
| 20260506225749 | 16 | 313 | 12.9 | 25.7 | 0.00 | 0.08 | 0.00 | 23 | 1018.2 |
| 20260506225249 | 16 | 313 | 12.9 | 32.2 | 0.00 | 0.08 | 0.00 | 23 | 1018.2 |
| 20260506224750 | 16 | 243 | 11.3 | 32.2 | 0.00 | 0.10 | 0.00 | 23 | 1018.0 |
| 20260506224520 | 16 | 318 | 11.3 | 22.5 | 0.00 | 0.10 | 0.00 | 25 | 1018.2 |
| 20260506223749 | 16 | 204 | 9.7 | 22.5 | 0.00 | 0.10 | 0.00 | 24 | 1018.0 |
| 20260506223249 | 16 | 306 | 11.3 | 29.0 | 0.00 | 0.10 | 0.00 | 24 | 1018.0 |
| 20260506222749 | 16 | 271 | 12.9 | 29.0 | 0.00 | 0.13 | 0.00 | 24 | 1018.2 |
| 20260506222249 | 16 | 277 | 11.3 | 25.7 | 0.00 | 0.13 | 0.00 | 24 | 1018.0 |
| 20260506222018 | 16 | 292 | 9.7 | 22.5 | 0.00 | 0.13 | 0.00 | 25 | 1018.2 |
| 20260506221247 | 16 | 250 | 6.4 | 22.5 | 0.00 | 0.15 | 0.00 | 24 | 1018.3 |
| 20260506220747 | 16 | 343 | 9.7 | 22.5 | 0.00 | 0.15 | 0.00 | 26 | 1018.3 |
| 20260506220247 | 16 | 348 | 14.5 | 27.4 | 0.00 | 0.18 | 0.00 | 25 | 1018.4 |
| 20260506215747 | 16 | 284 | 12.9 | 27.4 | 0.00 | 0.18 | 0.00 | 25 | 1018.4 |
| 20260506215245 | 16 | 292 | 12.9 | 27.4 | 0.00 | 0.18 | 0.00 | 25 | 1018.4 |
| 20260506214745 | 16 | 297 | 14.5 | 25.7 | 0.00 | 0.20 | 0.00 | 26 | 1018.5 |
| 20260506214245 | 16 | 249 | 12.9 | 24.1 | 0.00 | 0.20 | 0.00 | 26 | 1018.5 |
| 20260506213745 | 15 | 0 | 14.5 | 32.2 | 0.00 | 0.23 | 0.00 | 27 | 1018.7 |
| 20260506213245 | 15 | 284 | 16.1 | 32.2 | 0.00 | 0.23 | 0.00 | 28 | 1018.7 |
| 20260506212745 | 15 | 313 | 14.5 | 27.4 | 0.00 | 0.23 | 0.00 | 28 | 1018.5 |
| 20260506212246 | 15 | 277 | 12.9 | 27.4 | 0.00 | 0.23 | 0.00 | 27 | 1018.7 |
| 20260506211743 | 15 | 297 | 12.9 | 33.8 | 0.00 | 0.23 | 0.00 | 28 | 1018.5 |
| 20260506211241 | 15 | 347 | 12.9 | 33.8 | 0.00 | 0.23 | 0.00 | 27 | 1018.7 |
| 20260506210741 | 15 | 273 | 12.9 | 32.2 | 0.00 | 0.23 | 0.00 | 30 | 1018.5 |
| 20260506210241 | 15 | 301 | 11.3 | 32.2 | 0.00 | 0.23 | 0.00 | 30 | 1018.5 |
| 20260506210012 | 15 | 319 | 11.3 | 24.1 | 0.00 | 0.23 | 0.00 | 29 | 1018.7 |
| 20260506205241 | 15 | 294 | 16.1 | 37.0 | 0.00 | 0.23 | 0.00 | 30 | 1018.7 |
| 20260506204740 | 14 | 304 | 14.5 | 37.0 | 0.00 | 0.23 | 0.00 | 31 | 1018.5 |
| 20260506204237 | 15 | 308 | 9.7 | 25.7 | 0.00 | 0.23 | 0.00 | 31 | 1018.5 |
| 20260506203737 | 15 | 275 | 12.9 | 25.7 | 0.00 | 0.23 | 0.00 | 31 | 1018.7 |
| 20260506203237 | 15 | 266 | 14.5 | 37.0 | 0.00 | 0.23 | 0.00 | 29 | 1018.5 |
| 20260506202738 | 15 | 306 | 12.9 | 37.0 | 0.00 | 0.23 | 0.00 | 31 | 1018.7 |
| 20260506202237 | 15 | 252 | 11.3 | 25.7 | 0.00 | 0.23 | 0.00 | 30 | 1018.7 |
| 20260506201733 | 15 | 290 | 9.7 | 25.7 | 0.00 | 0.23 | 0.00 | 29 | 1018.7 |
| 20260506201233 | 15 | 300 | 8.0 | 25.7 | 0.00 | 0.23 | 0.00 | 29 | 1018.5 |
| 20260506200733 | 15 | 268 | 9.7 | 33.8 | 0.00 | 0.23 | 0.00 | 29 | 1018.5 |
| 20260506200234 | 14 | 0 | 12.9 | 33.8 | 0.00 | 0.23 | 0.00 | 29 | 1018.5 |
| 20260506195734 | 14 | 269 | 12.9 | 30.6 | 0.00 | 0.23 | 0.00 | 28 | 1018.5 |
| 20260506195233 | 14 | 235 | 14.5 | 32.2 | 0.00 | 0.23 | 0.00 | 29 | 1018.5 |
| 20260506195005 | 14 | 0 | 11.3 | 32.2 | 0.00 | 0.23 | 0.00 | 29 | 1018.5 |
| 20260506194840 | 13 | 246 | 12.9 | 29.0 | 0.00 | 0.23 | 0.00 | 31 | 1018.5 |
| 20260506194504 | 14 | 301 | 8.0 | 20.9 | 0.00 | 0.23 | 0.00 | 30 | 1018.7 |
| 20260506193233 | 13 | 310 | 16.1 | 40.2 | 0.00 | 0.23 | 0.00 | 31 | 1018.7 |
| 20260506192739 | 13 | 277 | 12.9 | 30.6 | 0.00 | 0.23 | 0.00 | 32 | 1018.5 |
| 20260506192732 | 13 | 288 | 17.7 | 40.2 | 0.00 | 0.23 | 0.00 | 31 | 1018.5 |
| 20260506192233 | 13 | 327 | 14.5 | 35.4 | 0.00 | 0.23 | 0.00 | 33 | 1018.5 |
| 20260506191504 | 13 | 290 | 11.3 | 30.6 | 0.00 | 0.23 | 0.00 | 31 | 1018.5 |
| 20260506190733 | 13 | 251 | 12.9 | 22.5 | 0.00 | 0.23 | 0.00 | 32 | 1018.4 |
| 20260506190231 | 13 | 261 | 16.1 | 40.2 | 0.00 | 0.23 | 0.00 | 31 | 1018.5 |
| 20260506185731 | 13 | 306 | 12.9 | 40.2 | 0.00 | 0.23 | 0.00 | 33 | 1018.5 |
| 20260506185231 | 13 | 280 | 9.7 | 20.9 | 0.00 | 0.23 | 0.00 | 35 | 1018.4 |
| 20260506185002 | 13 | 275 | 11.3 | 24.1 | 0.00 | 0.23 | 0.00 | 33 | 1018.4 |
| 20260506184231 | 13 | 286 | 9.7 | 24.1 | 0.00 | 0.23 | 0.00 | 35 | 1018.5 |
| 20260506184003 | 13 | 255 | 8.0 | 16.1 | 0.00 | 0.23 | 0.00 | 36 | 1018.4 |
| 20260506183231 | 13 | 295 | 9.7 | 24.1 | 0.00 | 0.23 | 0.00 | 37 | 1018.5 |
| 20260506182730 | 12 | 252 | 9.7 | 24.1 | 0.00 | 0.23 | 0.00 | 36 | 1018.5 |
| 20260506182456 | 12 | 238 | 9.7 | 20.9 | 0.00 | 0.23 | 0.00 | 36 | 1018.7 |
| 20260506181723 | 12 | 275 | 11.3 | 24.1 | 0.00 | 0.23 | 0.00 | 38 | 1018.5 |
| 20260506181222 | 12 | 311 | 12.9 | 37.0 | 0.00 | 0.23 | 0.00 | 39 | 1018.5 |
| 20260506180720 | 12 | 301 | 12.9 | 37.0 | 0.00 | 0.23 | 0.00 | 38 | 1018.7 |
| 20260506180221 | 12 | 350 | 12.9 | 24.1 | 0.00 | 0.23 | 0.00 | 38 | 1018.7 |
| 20260506175721 | 11 | 304 | 14.5 | 25.7 | 0.00 | 0.23 | 0.00 | 38 | 1018.7 |
| 20260506175451 | 11 | 271 | 12.9 | 25.7 | 0.00 | 0.23 | 0.00 | 39 | 1018.5 |
| 20260506174721 | 12 | 331 | 9.7 | 20.9 | 0.00 | 0.23 | 0.00 | 38 | 1018.5 |
| 20260506174221 | 12 | 270 | 11.3 | 29.0 | 0.00 | 0.23 | 0.00 | 41 | 1018.5 |
| 20260506173721 | 11 | 292 | 12.9 | 29.0 | 0.00 | 0.23 | 0.00 | 41 | 1018.4 |
| 20260506173451 | 11 | 306 | 11.3 | 25.7 | 0.00 | 0.23 | 0.00 | 40 | 1018.5 |
| 20260506172725 | 11 | 250 | 12.9 | 29.0 | 0.00 | 0.23 | 0.00 | 39 | 1018.4 |
| 20260506172721 | 11 | 303 | 12.9 | 29.0 | 0.00 | 0.23 | 0.00 | 41 | 1018.5 |
| 20260506171721 | 11 | 315 | 9.7 | 24.1 | 0.00 | 0.23 | 0.00 | 41 | 1018.3 |
| 20260506171221 | 11 | 315 | 12.9 | 27.4 | 0.00 | 0.23 | 0.00 | 42 | 1018.2 |
| 20260506170720 | 11 | 255 | 12.9 | 27.4 | 0.00 | 0.23 | 0.00 | 41 | 1018.2 |
| 20260506170221 | 11 | 220 | 9.7 | 25.7 | 0.00 | 0.23 | 0.00 | 41 | 1018.0 |
| 20260506165721 | 11 | 304 | 11.3 | 24.1 | 0.00 | 0.23 | 0.00 | 42 | 1018.0 |
| 20260506165221 | 10 | 251 | 12.9 | 29.0 | 0.00 | 0.23 | 0.00 | 42 | 1018.2 |
| 20260506164721 | 10 | 282 | 12.9 | 29.0 | 0.00 | 0.23 | 0.00 | 43 | 1018.2 |
| 20260506164220 | 10 | 282 | 14.5 | 25.7 | 0.00 | 0.23 | 0.00 | 42 | 1018.0 |
| 20260506163719 | 10 | 296 | 16.1 | 30.6 | 0.00 | 0.23 | 0.00 | 42 | 1017.9 |
| 20260506163450 | 10 | 302 | 17.7 | 30.6 | 0.00 | 0.23 | 0.00 | 42 | 1017.8 |
| 20260506162718 | 10 | 287 | 14.5 | 30.6 | 0.00 | 0.23 | 0.00 | 43 | 1017.8 |
| 20260506162449 | 10 | 318 | 12.9 | 27.4 | 0.00 | 0.23 | 0.00 | 44 | 1017.8 |
| 20260506161719 | 9 | 301 | 12.9 | 29.0 | 0.00 | 0.23 | 0.00 | 44 | 1017.8 |
| 20260506161219 | 9 | 295 | 12.9 | 25.7 | 0.00 | 0.23 | 0.00 | 45 | 1017.8 |
| 20260506160718 | 9 | 261 | 12.9 | 24.1 | 0.00 | 0.23 | 0.00 | 46 | 1017.7 |
| 20260506160444 | 8 | 274 | 12.9 | 24.1 | 0.00 | 0.23 | 0.00 | 46 | 1017.8 |
| 20260506155713 | 8 | 277 | 11.3 | 29.0 | 0.00 | 0.23 | 0.00 | 46 | 1017.7 |
| 20260506155443 | 8 | 321 | 11.3 | 29.0 | 0.00 | 0.23 | 0.00 | 47 | 1017.7 |
| 20260506154713 | 8 | 258 | 11.3 | 24.1 | 0.00 | 0.23 | 0.00 | 47 | 1017.7 |
| 20260506154213 | 8 | 277 | 11.3 | 24.1 | 0.00 | 0.23 | 0.00 | 48 | 1017.7 |
| 20260506153713 | 8 | 252 | 11.3 | 25.7 | 0.00 | 0.23 | 0.00 | 50 | 1017.7 |
| 20260506153212 | 8 | 278 | 11.3 | 25.7 | 0.00 | 0.23 | 0.00 | 48 | 1017.7 |
| 20260506152712 | 7 | 265 | 11.3 | 30.6 | 0.00 | 0.23 | 0.00 | 50 | 1017.7 |
| 20260506152212 | 7 | 257 | 11.3 | 30.6 | 0.00 | 0.23 | 0.00 | 50 | 1017.7 |
| 20260506151944 | 7 | 269 | 8.0 | 22.5 | 0.00 | 0.23 | 0.00 | 51 | 1017.7 |
| 20260506151213 | 7 | 276 | 6.4 | 19.3 | 0.00 | 0.23 | 0.00 | 53 | 1017.6 |
| 20260506150713 | 7 | 285 | 8.0 | 19.3 | 0.00 | 0.23 | 0.00 | 53 | 1017.6 |
| 20260506150212 | 6 | 277 | 9.7 | 19.3 | 0.00 | 0.23 | 0.00 | 53 | 1017.6 |
| 20260506145710 | 6 | 251 | 9.7 | 19.3 | 0.00 | 0.23 | 0.00 | 54 | 1017.4 |
| 20260506145442 | 6 | 273 | 11.3 | 19.3 | 0.00 | 0.23 | 0.00 | 54 | 1017.4 |
| 20260506144710 | 6 | 248 | 11.3 | 19.3 | 0.00 | 0.23 | 0.00 | 54 | 1017.4 |
| 20260506144208 | 6 | 261 | 11.3 | 22.5 | 0.00 | 0.23 | 0.00 | 55 | 1017.4 |
| 20260506143709 | 6 | 269 | 9.7 | 22.5 | 0.00 | 0.23 | 0.00 | 54 | 1017.4 |
| 20260506143208 | 6 | 268 | 8.0 | 17.7 | 0.00 | 0.23 | 0.00 | 56 | 1017.4 |
| 20260506142707 | 6 | 277 | 9.7 | 22.5 | 0.00 | 0.23 | 0.00 | 56 | 1017.4 |
| 20260506142206 | 5 | 292 | 9.7 | 22.5 | 0.00 | 0.23 | 0.00 | 56 | 1017.3 |
| 20260506141706 | 5 | 289 | 6.4 | 20.9 | 0.00 | 0.23 | 0.00 | 57 | 1017.3 |
| 20260506141437 | 5 | 293 | 4.8 | 16.1 | 0.00 | 0.23 | 0.00 | 59 | 1017.2 |
| 20260506140706 | 5 | 310 | 4.8 | 16.1 | 0.00 | 0.23 | 0.00 | 58 | 1017.2 |
| 20260506140437 | 5 | 278 | 4.8 | 16.1 | 0.00 | 0.23 | 0.00 | 60 | 1017.1 |
| 20260506135706 | 5 | 257 | 6.4 | 16.1 | 0.00 | 0.23 | 0.00 | 60 | 1017.1 |
| 20260506135205 | 5 | 306 | 6.4 | 16.1 | 0.00 | 0.23 | 0.00 | 60 | 1017.2 |
| 20260506134704 | 5 | 276 | 4.8 | 11.3 | 0.00 | 0.23 | 0.00 | 61 | 1017.1 |
| 20260506134202 | 4 | 311 | 4.8 | 11.3 | 0.00 | 0.23 | 0.00 | 61 | 1017.1 |
| 20260506133702 | 4 | 278 | 4.8 | 9.7 | 0.00 | 0.23 | 0.00 | 62 | 1016.9 |
| 20260506133202 | 4 | 291 | 4.8 | 12.9 | 0.00 | 0.23 | 0.00 | 62 | 1016.9 |
| 20260506132702 | 3 | 300 | 4.8 | 12.9 | 0.00 | 0.23 | 0.00 | 63 | 1016.9 |
| 20260506132202 | 3 | 283 | 4.8 | 11.3 | 0.00 | 0.23 | 0.00 | 64 | 1016.9 |
| 20260506131703 | 3 | 286 | 4.8 | 11.3 | 0.00 | 0.23 | 0.00 | 65 | 1016.9 |
| 20260506131202 | 3 | 279 | 4.8 | 11.3 | 0.00 | 0.23 | 0.00 | 65 | 1016.8 |
| 20260506130702 | 3 | 281 | 4.8 | 11.3 | 0.00 | 0.23 | 0.00 | 66 | 1016.8 |
| 20260506130432 | 2 | 281 | 4.8 | 8.0 | 0.00 | 0.23 | 0.00 | 66 | 1016.8 |
| 20260506125702 | 2 | 276 | 4.8 | 8.0 | 0.00 | 0.23 | 0.00 | 66 | 1016.8 |
| 20260506125202 | 2 | 279 | 4.8 | 8.0 | 0.00 | 0.23 | 0.00 | 67 | 1016.7 |
| 20260506124702 | 2 | 275 | 4.8 | 8.0 | 0.00 | 0.23 | 0.00 | 67 | 1016.8 |
| 20260506124202 | 2 | 284 | 4.8 | 9.7 | 0.00 | 0.23 | 0.00 | 67 | 1016.7 |
| 20260506123700 | 2 | 290 | 4.8 | 9.7 | 0.00 | 0.23 | 0.00 | 67 | 1016.6 |
| 20260506123200 | 2 | 269 | 4.8 | 12.9 | 0.00 | 0.23 | 0.00 | 68 | 1016.6 |
| 20260506122700 | 2 | 302 | 4.8 | 12.9 | 0.00 | 0.23 | 0.00 | 68 | 1016.4 |
| 20260506122158 | 2 | 280 | 4.8 | 12.9 | 0.00 | 0.23 | 0.00 | 69 | 1016.4 |
| 20260506121700 | 2 | 304 | 4.8 | 12.9 | 0.00 | 0.23 | 0.00 | 69 | 1016.3 |
| 20260506121154 | 2 | 288 | 4.8 | 8.0 | 0.00 | 0.23 | 0.00 | 69 | 1016.2 |
| 20260506120654 | 2 | 280 | 4.8 | 8.0 | 0.00 | 0.23 | 0.00 | 69 | 1016.1 |
| 20260506120154 | 2 | 287 | 3.2 | 8.0 | 0.00 | 0.23 | 0.00 | 68 | 1016.1 |
| 20260506115654 | 2 | 284 | 3.2 | 6.4 | 0.00 | 0.23 | 0.00 | 68 | 1016.1 |
| 20260506115425 | 2 | 281 | 3.2 | 8.0 | 0.00 | 0.23 | 0.00 | 68 | 1016.1 |
| 20260506114654 | 2 | 280 | 4.8 | 9.7 | 0.00 | 0.23 | 0.00 | 68 | 1016.2 |
| 20260506114423 | 2 | 275 | 4.8 | 14.5 | 0.00 | 0.23 | 0.00 | 68 | 1016.1 |
| 20260506113652 | 2 | 277 | 6.4 | 14.5 | 0.00 | 0.23 | 0.00 | 68 | 1016.1 |
| 20260506113422 | 2 | 264 | 4.8 | 11.3 | 0.00 | 0.23 | 0.00 | 68 | 1016.1 |
| 20260506112652 | 2 | 299 | 4.8 | 11.3 | 0.00 | 0.23 | 0.00 | 68 | 1016.2 |
| 20260506112152 | 2 | 272 | 6.4 | 12.9 | 0.00 | 0.23 | 0.00 | 68 | 1016.1 |
| 20260506111652 | 2 | 279 | 6.4 | 12.9 | 0.00 | 0.23 | 0.00 | 68 | 1015.9 |
| 20260506111150 | 2 | 265 | 6.4 | 12.9 | 0.00 | 0.23 | 0.00 | 68 | 1015.9 |
| 20260506110918 | 2 | 273 | 6.4 | 12.9 | 0.00 | 0.23 | 0.00 | 68 | 1015.9 |
| 20260506110419 | 2 | 257 | 6.4 | 12.9 | 0.00 | 0.23 | 0.00 | 68 | 1015.9 |
| 20260506105648 | 2 | 262 | 6.4 | 12.9 | 0.00 | 0.23 | 0.00 | 68 | 1016.1 |
| 20260506105148 | 2 | 275 | 6.4 | 14.5 | 0.00 | 0.23 | 0.00 | 69 | 1015.9 |
| 20260506104649 | 2 | 277 | 4.8 | 14.5 | 0.00 | 0.23 | 0.00 | 69 | 1015.8 |
| 20260506104149 | 2 | 270 | 3.2 | 9.7 | 0.00 | 0.23 | 0.00 | 69 | 1015.8 |
| 20260506103648 | 2 | 272 | 3.2 | 8.0 | 0.00 | 0.23 | 0.00 | 69 | 1015.8 |
| 20260506103148 | 2 | 264 | 4.8 | 8.0 | 0.00 | 0.23 | 0.00 | 69 | 1015.7 |
| 20260506102920 | 2 | 263 | 4.8 | 8.0 | 0.00 | 0.23 | 0.00 | 69 | 1015.6 |
| 20260506102148 | 2 | 268 | 4.8 | 8.0 | 0.00 | 0.23 | 0.00 | 69 | 1015.6 |
| 20260506101647 | 2 | 268 | 4.8 | 8.0 | 0.00 | 0.23 | 0.00 | 69 | 1015.6 |
| 20260506101148 | 2 | 271 | 3.2 | 6.4 | 0.00 | 0.23 | 0.00 | 70 | 1015.6 |
| 20260506100919 | 2 | 269 | 3.2 | 8.0 | 0.00 | 0.23 | 0.00 | 70 | 1015.6 |
| 20260506100144 | 2 | 275 | 3.2 | 8.0 | 0.00 | 0.23 | 0.00 | 70 | 1015.4 |
| 20260506095644 | 2 | 296 | 3.2 | 8.0 | 0.00 | 0.23 | 0.00 | 69 | 1015.4 |
| 20260506095144 | 2 | 274 | 4.8 | 11.3 | 0.00 | 0.23 | 0.00 | 69 | 1015.4 |
| 20260506094642 | 2 | 273 | 4.8 | 11.3 | 0.00 | 0.23 | 0.00 | 69 | 1015.4 |
| 20260506094141 | 2 | 267 | 6.4 | 11.3 | 0.00 | 0.23 | 0.00 | 69 | 1015.4 |
| 20260506093641 | 2 | 278 | 6.4 | 11.3 | 0.00 | 0.23 | 0.00 | 69 | 1015.3 |
| 20260506093141 | 2 | 275 | 6.4 | 11.3 | 0.00 | 0.23 | 0.00 | 69 | 1015.3 |
| 20260506092642 | 2 | 268 | 4.8 | 11.3 | 0.00 | 0.23 | 0.00 | 70 | 1015.3 |
| 20260506092142 | 2 | 270 | 4.8 | 11.3 | 0.00 | 0.23 | 0.00 | 70 | 1015.3 |
| 20260506091642 | 2 | 277 | 4.8 | 8.0 | 0.00 | 0.23 | 0.00 | 70 | 1015.3 |
| 20260506091518 | 2 | 271 | 3.2 | 8.0 | 0.00 | 0.23 | 0.00 | 70 | 1015.6 |
| 20260506091413 | 2 | 281 | 3.2 | 8.0 | 0.00 | 0.23 | 0.00 | 70 | 1015.6 |
| 20260506090413 | 2 | 281 | 3.2 | 6.4 | 0.00 | 0.23 | 0.00 | 70 | 1015.6 |
| 20260506085640 | 2 | 278 | 3.2 | 6.4 | 0.00 | 0.23 | 0.00 | 70 | 1015.6 |
| 20260506085140 | 2 | 272 | 3.2 | 6.4 | 0.00 | 0.23 | 0.00 | 70 | 1015.4 |
| 20260506084909 | 2 | 274 | 4.8 | 6.4 | 0.00 | 0.23 | 0.00 | 70 | 1015.6 |
| 20260506084138 | 2 | 270 | 4.8 | 8.0 | 0.00 | 0.23 | 0.00 | 69 | 1015.4 |
| 20260506083636 | 2 | 274 | 4.8 | 9.7 | 0.00 | 0.23 | 0.00 | 69 | 1015.6 |
| 20260506083136 | 2 | 279 | 4.8 | 9.7 | 0.00 | 0.23 | 0.00 | 69 | 1015.6 |
| 20260506082636 | 2 | 269 | 4.8 | 11.3 | 0.00 | 0.23 | 0.00 | 68 | 1015.6 |
| 20260506082135 | 2 | 261 | 6.4 | 11.3 | 0.00 | 0.23 | 0.00 | 68 | 1015.7 |
| 20260506081636 | 2 | 275 | 4.8 | 9.7 | 0.00 | 0.23 | 0.00 | 69 | 1015.7 |
| 20260506081406 | 2 | 293 | 4.8 | 9.7 | 0.00 | 0.23 | 0.00 | 69 | 1015.7 |
| 20260506080636 | 2 | 270 | 4.8 | 9.7 | 0.00 | 0.23 | 0.00 | 69 | 1015.7 |
| 20260506080406 | 2 | 273 | 4.8 | 11.3 | 0.00 | 0.23 | 0.00 | 69 | 1015.7 |
| 20260506073135 | 2 | 288 | 4.8 | 11.3 | 0.00 | 0.23 | 0.00 | 69 | 1015.8 |
| 20260506072635 | 2 | 290 | 4.8 | 14.5 | 0.00 | 0.23 | 0.00 | 70 | 1015.8 |
| 20260506072135 | 2 | 282 | 6.4 | 14.5 | 0.00 | 0.23 | 0.00 | 71 | 1015.7 |
| 20260506071636 | 2 | 288 | 6.4 | 11.3 | 0.00 | 0.23 | 0.00 | 71 | 1015.7 |
| 20260506071135 | 2 | 277 | 4.8 | 11.3 | 0.00 | 0.23 | 0.00 | 72 | 1015.7 |
| 20260506070906 | 2 | 283 | 4.8 | 9.7 | 0.00 | 0.23 | 0.00 | 73 | 1015.7 |
| 20260506070133 | 2 | 288 | 4.8 | 9.7 | 0.00 | 0.23 | 0.00 | 74 | 1015.7 |